createdAt,value
2018-09-29T10:35:57.209Z,52.7
2018-09-29T10:40:39.620Z,53.2
2018-09-29T10:45:39.765Z,52.1
2018-09-29T11:05:49.735Z,52.1
2018-09-29T11:10:44.746Z,52.1
2018-09-29T11:15:40.428Z,52.1
2018-09-29T11:20:40.416Z,49.2
2018-09-29T11:30:43.611Z,49.3
2018-09-29T11:35:40.035Z,47.1
2018-09-29T11:40:40.299Z,47
2018-09-29T11:45:39.811Z,45.9
2018-09-29T11:50:39.831Z,47.1
2018-09-29T11:55:40.174Z,47.1
2018-09-29T12:00:39.933Z,45.7
2018-09-29T12:05:39.888Z,47.7
2018-09-29T12:10:40.013Z,44.9
2018-09-29T12:15:40.145Z,45.7
2018-09-29T12:20:40.202Z,46.6
2018-09-29T12:25:39.757Z,45.3
2018-09-29T12:30:39.811Z,43.7
2018-09-29T12:35:39.918Z,40.7
2018-09-29T12:40:40.069Z,42.5
2018-09-29T12:45:39.959Z,42.6
2018-09-29T12:50:39.882Z,41.4
2018-09-29T12:55:39.829Z,40.8
2018-09-29T13:00:39.995Z,42.2
2018-09-29T13:05:39.950Z,42.2
2018-09-29T13:10:39.770Z,40.4
2018-09-29T13:15:39.736Z,40.3
2018-09-29T13:20:39.887Z,39.3
2018-09-29T13:25:39.801Z,41.4
2018-09-29T13:30:39.853Z,40.5
2018-09-29T13:35:39.705Z,40.6
2018-09-29T13:40:39.725Z,40.7
2018-09-29T13:45:39.753Z,41.8
2018-09-29T13:50:39.814Z,39.9
2018-09-29T13:55:39.886Z,41.3
2018-09-29T14:00:39.853Z,42.7
2018-09-29T14:05:39.606Z,42.6
2018-09-29T14:10:39.832Z,41.7
2018-09-29T14:15:39.724Z,40.4
2018-09-29T14:20:39.750Z,41.6
2018-09-29T14:25:39.889Z,39.9
2018-09-29T14:30:39.713Z,41.2
2018-09-29T14:35:39.680Z,41.2
2018-09-29T14:40:39.821Z,41.9
2018-09-29T14:45:39.642Z,41.9
2018-09-29T14:50:39.551Z,41.8
2018-09-29T14:55:39.706Z,40.9
2018-09-29T15:00:39.701Z,41
2018-09-29T15:05:39.839Z,40
2018-09-29T15:10:39.839Z,36.9
2018-09-29T15:15:39.506Z,39
2018-09-29T15:20:39.595Z,38.5
2018-09-29T15:25:39.765Z,40.7
2018-09-29T15:30:39.753Z,41
2018-09-29T15:35:39.849Z,44.4
2018-09-29T15:40:39.743Z,43
2018-09-29T15:45:39.508Z,43
2018-09-29T15:50:39.464Z,43.1
2018-09-29T15:55:39.807Z,43.3
2018-09-29T16:00:39.512Z,43.9
2018-09-29T16:05:39.434Z,43.2
2018-09-29T16:10:39.467Z,44.4
2018-09-29T16:15:39.801Z,45.7
2018-09-29T16:20:39.787Z,45.4
2018-09-29T16:25:39.775Z,46.2
2018-09-29T16:30:39.387Z,45.3
2018-09-29T16:35:39.682Z,46.9
2018-09-29T16:40:39.698Z,48.3
2018-09-29T16:45:39.678Z,47.6
2018-09-29T16:50:39.738Z,47.5
2018-09-29T16:55:39.366Z,49.4
2018-09-29T17:00:39.726Z,48.4
2018-09-29T17:05:39.585Z,48.7
2018-09-29T17:10:39.345Z,49.9
2018-09-29T17:15:39.394Z,50.1
2018-09-29T17:20:39.557Z,49.8
2018-09-29T17:25:39.707Z,50.6
2018-09-29T17:30:39.420Z,51.7
2018-09-29T17:35:39.619Z,53.5
2018-09-29T17:40:39.394Z,54.2
2018-09-29T17:45:39.426Z,54.5
2018-09-29T17:50:39.386Z,55.9
2018-09-29T17:55:39.573Z,56.5
2018-09-29T18:00:39.266Z,57.5
2018-09-29T18:05:39.307Z,57.8
2018-09-29T18:10:39.505Z,58.8
2018-09-29T18:15:39.430Z,59.7
2018-09-29T18:20:39.291Z,60.4
2018-09-29T18:25:39.259Z,60.8
2018-09-29T18:30:39.422Z,61.4
2018-09-29T18:35:39.620Z,62.2
2018-09-29T18:40:39.192Z,62.7
2018-09-29T18:45:39.316Z,63.1
2018-09-29T18:50:39.197Z,63.7
2018-09-29T18:55:39.189Z,63.7
2018-09-29T19:00:39.385Z,64
2018-09-29T19:05:39.500Z,64.8
2018-09-29T19:10:39.485Z,65.3
2018-09-29T19:15:39.326Z,65.6
2018-09-29T19:20:39.491Z,66.2
2018-09-29T19:25:39.463Z,66.3
2018-09-29T19:30:39.509Z,66.9
2018-09-29T19:35:39.526Z,67.2
2018-09-29T19:40:39.166Z,67.4
2018-09-29T19:45:39.566Z,68.2
2018-09-29T19:50:39.358Z,68.2
2018-09-29T19:55:39.101Z,68.7
2018-09-29T20:00:39.332Z,69.1
2018-09-29T20:05:39.441Z,69.2
2018-09-29T20:10:39.320Z,69.8
2018-09-29T20:15:39.210Z,69.7
2018-09-29T20:20:39.207Z,70.1
2018-09-29T20:25:39.184Z,70.3
2018-09-29T20:30:39.355Z,70.6
2018-09-29T20:35:39.184Z,71.2
2018-09-29T20:40:39.128Z,71.1
2018-09-29T20:45:39.400Z,70.9
2018-09-29T20:50:39.213Z,71.2
2018-09-29T20:55:39.227Z,71.6
2018-09-29T21:00:39.172Z,72
2018-09-29T21:05:39.144Z,72.5
2018-09-29T21:10:39.260Z,72.6
2018-09-29T21:15:40.104Z,72.7
2018-09-29T21:20:39.206Z,72.8
2018-09-29T21:25:39.054Z,72.8
2018-09-29T21:30:39.332Z,73.1
2018-09-29T21:35:39.239Z,73.7
2018-09-29T21:40:39.346Z,74.1
2018-09-29T21:45:38.988Z,74
2018-09-29T21:50:39.155Z,74.7
2018-09-29T21:55:39.005Z,74.7
2018-09-29T22:00:39.063Z,75
2018-09-29T22:05:39.222Z,76
2018-09-29T22:10:39.029Z,75.4
2018-09-29T22:15:39.158Z,75.7
2018-09-29T22:20:39.129Z,75.8
2018-09-29T22:25:38.993Z,75.7
2018-09-29T22:30:39.007Z,75.7
2018-09-29T22:35:39.153Z,76.1
2018-09-29T22:40:39.110Z,76.5
2018-09-29T22:45:39.041Z,76.1
2018-09-29T22:50:39.235Z,76.2
2018-09-29T22:55:39.241Z,76.7
2018-09-29T23:00:38.923Z,76.7
2018-09-29T23:05:39.076Z,77.1
2018-09-29T23:10:38.998Z,77.8
2018-09-29T23:15:38.934Z,78.1
2018-09-29T23:20:38.976Z,77.4
2018-09-29T23:25:39.203Z,77.3
2018-09-29T23:30:39.026Z,77
2018-09-29T23:35:39.084Z,77.3
2018-09-29T23:40:38.901Z,77.2
2018-09-29T23:45:38.804Z,76.9
2018-09-29T23:50:39.068Z,77.3
2018-09-29T23:55:39.109Z,77.1
